sensor_id;sensor_type;location;lat;lon;timestamp;P1;durP1;ratioP1;P2;durP2;ratioP2
22814;SDS011;11574;51.058;13.712;2023-12-20T00:01:26;3.23;;;2.30;;
22814;SDS011;11574;51.058;13.712;2023-12-20T00:06:28;3.80;;;2.50;;
22814;SDS011;11574;51.058;13.712;2023-12-20T00:11:31;4.57;;;2.70;;
22814;SDS011;11574;51.058;13.712;2023-12-20T00:16:34;3.53;;;2.57;;
22814;SDS011;11574;51.058;13.712;2023-12-20T00:21:36;3.47;;;1.93;;
22814;SDS011;11574;51.058;13.712;2023-12-20T00:26:40;2.30;;;1.70;;
22814;SDS011;11574;51.058;13.712;2023-12-20T00:31:42;3.53;;;1.87;;
22814;SDS011;11574;51.058;13.712;2023-12-20T00:36:44;2.33;;;1.53;;
22814;SDS011;11574;51.058;13.712;2023-12-20T00:41:48;2.33;;;1.63;;
22814;SDS011;11574;51.058;13.712;2023-12-20T00:46:51;2.20;;;1.20;;
22814;SDS011;11574;51.058;13.712;2023-12-20T00:51:53;2.93;;;1.43;;
22814;SDS011;11574;51.058;13.712;2023-12-20T00:56:56;1.83;;;1.43;;
22814;SDS011;11574;51.058;13.712;2023-12-20T01:01:59;2.57;;;1.30;;
22814;SDS011;11574;51.058;13.712;2023-12-20T01:07:02;2.00;;;1.20;;
22814;SDS011;11574;51.058;13.712;2023-12-20T01:12:06;1.90;;;1.30;;
22814;SDS011;11574;51.058;13.712;2023-12-20T01:17:08;2.43;;;1.03;;
22814;SDS011;11574;51.058;13.712;2023-12-20T01:22:11;1.77;;;1.30;;
22814;SDS011;11574;51.058;13.712;2023-12-20T01:27:14;1.60;;;1.10;;
22814;SDS011;11574;51.058;13.712;2023-12-20T01:32:16;2.57;;;1.40;;
22814;SDS011;11574;51.058;13.712;2023-12-20T01:37:19;1.70;;;1.20;;
22814;SDS011;11574;51.058;13.712;2023-12-20T01:42:25;2.67;;;1.20;;
22814;SDS011;11574;51.058;13.712;2023-12-20T01:47:27;1.47;;;1.00;;
22814;SDS011;11574;51.058;13.712;2023-12-20T01:52:29;1.57;;;0.80;;
22814;SDS011;11574;51.058;13.712;2023-12-20T01:57:35;1.10;;;0.90;;
22814;SDS011;11574;51.058;13.712;2023-12-20T02:02:37;1.00;;;0.87;;
22814;SDS011;11574;51.058;13.712;2023-12-20T02:07:41;3.00;;;0.90;;
22814;SDS011;11574;51.058;13.712;2023-12-20T02:12:44;1.33;;;0.83;;
22814;SDS011;11574;51.058;13.712;2023-12-20T02:17:47;0.90;;;0.67;;
22814;SDS011;11574;51.058;13.712;2023-12-20T02:22:51;0.77;;;0.60;;
22814;SDS011;11574;51.058;13.712;2023-12-20T02:27:53;2.20;;;0.80;;
22814;SDS011;11574;51.058;13.712;2023-12-20T02:32:55;1.13;;;0.70;;
22814;SDS011;11574;51.058;13.712;2023-12-20T02:38:01;0.63;;;0.60;;
22814;SDS011;11574;51.058;13.712;2023-12-20T02:43:03;1.57;;;0.80;;
22814;SDS011;11574;51.058;13.712;2023-12-20T02:48:06;0.70;;;0.50;;
22814;SDS011;11574;51.058;13.712;2023-12-20T02:53:09;1.43;;;0.60;;
22814;SDS011;11574;51.058;13.712;2023-12-20T02:58:12;0.90;;;0.80;;
22814;SDS011;11574;51.058;13.712;2023-12-20T03:03:14;1.53;;;0.80;;
22814;SDS011;11574;51.058;13.712;2023-12-20T03:08:17;0.57;;;0.50;;
22814;SDS011;11574;51.058;13.712;2023-12-20T03:13:20;1.10;;;0.70;;
22814;SDS011;11574;51.058;13.712;2023-12-20T03:18:22;1.03;;;0.70;;
22814;SDS011;11574;51.058;13.712;2023-12-20T03:23:26;0.63;;;0.43;;
22814;SDS011;11574;51.058;13.712;2023-12-20T03:28:29;0.90;;;0.60;;
22814;SDS011;11574;51.058;13.712;2023-12-20T03:33:31;0.70;;;0.50;;
22814;SDS011;11574;51.058;13.712;2023-12-20T03:38:35;0.53;;;0.50;;
22814;SDS011;11574;51.058;13.712;2023-12-20T03:43:37;1.03;;;0.57;;
22814;SDS011;11574;51.058;13.712;2023-12-20T03:48:39;0.67;;;0.50;;
22814;SDS011;11574;51.058;13.712;2023-12-20T03:53:43;0.50;;;0.40;;
22814;SDS011;11574;51.058;13.712;2023-12-20T03:58:45;0.60;;;0.40;;
22814;SDS011;11574;51.058;13.712;2023-12-20T04:03:47;0.50;;;0.50;;
22814;SDS011;11574;51.058;13.712;2023-12-20T04:08:51;0.70;;;0.50;;
22814;SDS011;11574;51.058;13.712;2023-12-20T04:13:53;0.73;;;0.50;;
22814;SDS011;11574;51.058;13.712;2023-12-20T04:18:56;1.03;;;0.50;;
22814;SDS011;11574;51.058;13.712;2023-12-20T04:23:59;2.37;;;1.00;;
22814;SDS011;11574;51.058;13.712;2023-12-20T04:29:02;0.70;;;0.50;;
22814;SDS011;11574;51.058;13.712;2023-12-20T04:34:04;1.63;;;0.90;;
22814;SDS011;11574;51.058;13.712;2023-12-20T04:39:08;0.67;;;0.50;;
22814;SDS011;11574;51.058;13.712;2023-12-20T04:44:10;0.33;;;0.33;;
22814;SDS011;11574;51.058;13.712;2023-12-20T04:49:12;0.70;;;0.50;;
22814;SDS011;11574;51.058;13.712;2023-12-20T04:54:16;1.20;;;0.60;;
22814;SDS011;11574;51.058;13.712;2023-12-20T04:59:18;0.67;;;0.50;;
22814;SDS011;11574;51.058;13.712;2023-12-20T05:04:20;0.77;;;0.60;;
22814;SDS011;11574;51.058;13.712;2023-12-20T05:09:24;2.27;;;0.60;;
22814;SDS011;11574;51.058;13.712;2023-12-20T05:14:26;0.83;;;0.60;;
22814;SDS011;11574;51.058;13.712;2023-12-20T05:19:28;0.73;;;0.40;;
22814;SDS011;11574;51.058;13.712;2023-12-20T05:24:32;1.20;;;0.57;;
22814;SDS011;11574;51.058;13.712;2023-12-20T05:29:36;1.43;;;0.60;;
22814;SDS011;11574;51.058;13.712;2023-12-20T05:34:38;0.53;;;0.40;;
22814;SDS011;11574;51.058;13.712;2023-12-20T05:39:41;0.70;;;0.40;;
22814;SDS011;11574;51.058;13.712;2023-12-20T05:44:44;3.00;;;0.63;;
22814;SDS011;11574;51.058;13.712;2023-12-20T05:49:46;0.40;;;0.33;;
22814;SDS011;11574;51.058;13.712;2023-12-20T05:54:50;1.50;;;0.60;;
22814;SDS011;11574;51.058;13.712;2023-12-20T05:59:52;0.90;;;0.50;;
22814;SDS011;11574;51.058;13.712;2023-12-20T06:04:54;0.70;;;0.50;;
22814;SDS011;11574;51.058;13.712;2023-12-20T06:09:59;3.73;;;0.40;;
22814;SDS011;11574;51.058;13.712;2023-12-20T06:15:01;0.50;;;0.30;;
22814;SDS011;11574;51.058;13.712;2023-12-20T06:20:04;0.70;;;0.50;;
22814;SDS011;11574;51.058;13.712;2023-12-20T06:25:09;0.97;;;0.57;;
22814;SDS011;11574;51.058;13.712;2023-12-20T06:30:11;0.50;;;0.40;;
22814;SDS011;11574;51.058;13.712;2023-12-20T06:35:14;2.90;;;0.60;;
22814;SDS011;11574;51.058;13.712;2023-12-20T06:40:17;3.83;;;0.90;;
22814;SDS011;11574;51.058;13.712;2023-12-20T06:45:19;3.20;;;1.00;;
22814;SDS011;11574;51.058;13.712;2023-12-20T06:50:22;1.20;;;0.73;;
22814;SDS011;11574;51.058;13.712;2023-12-20T06:55:27;0.80;;;0.70;;
22814;SDS011;11574;51.058;13.712;2023-12-20T07:00:31;3.20;;;1.00;;
22814;SDS011;11574;51.058;13.712;2023-12-20T07:05:34;1.70;;;1.20;;
22814;SDS011;11574;51.058;13.712;2023-12-20T07:10:37;2.23;;;1.07;;
22814;SDS011;11574;51.058;13.712;2023-12-20T07:15:40;1.87;;;1.27;;
22814;SDS011;11574;51.058;13.712;2023-12-20T07:20:42;2.57;;;1.33;;
22814;SDS011;11574;51.058;13.712;2023-12-20T07:25:46;2.60;;;1.53;;
22814;SDS011;11574;51.058;13.712;2023-12-20T07:30:48;1.53;;;1.10;;
22814;SDS011;11574;51.058;13.712;2023-12-20T07:35:50;1.93;;;1.53;;
22814;SDS011;11574;51.058;13.712;2023-12-20T07:40:54;3.93;;;1.27;;
22814;SDS011;11574;51.058;13.712;2023-12-20T07:45:56;2.80;;;1.17;;
22814;SDS011;11574;51.058;13.712;2023-12-20T07:50:58;4.37;;;1.60;;
22814;SDS011;11574;51.058;13.712;2023-12-20T07:56:02;1.63;;;1.40;;
22814;SDS011;11574;51.058;13.712;2023-12-20T08:01:05;2.07;;;1.70;;
22814;SDS011;11574;51.058;13.712;2023-12-20T08:06:07;5.90;;;1.73;;
22814;SDS011;11574;51.058;13.712;2023-12-20T08:11:10;3.80;;;1.50;;
22814;SDS011;11574;51.058;13.712;2023-12-20T08:16:13;5.60;;;1.67;;
22814;SDS011;11574;51.058;13.712;2023-12-20T08:21:17;2.30;;;1.40;;
22814;SDS011;11574;51.058;13.712;2023-12-20T08:26:23;2.10;;;1.30;;
22814;SDS011;11574;51.058;13.712;2023-12-20T08:31:26;2.10;;;1.27;;
22814;SDS011;11574;51.058;13.712;2023-12-20T08:36:28;2.00;;;1.20;;
22814;SDS011;11574;51.058;13.712;2023-12-20T08:41:32;2.33;;;1.30;;
22814;SDS011;11574;51.058;13.712;2023-12-20T08:46:37;2.00;;;1.13;;
22814;SDS011;11574;51.058;13.712;2023-12-20T08:51:43;3.77;;;1.17;;
22814;SDS011;11574;51.058;13.712;2023-12-20T08:56:46;1.57;;;0.87;;
22814;SDS011;11574;51.058;13.712;2023-12-20T09:01:49;4.33;;;0.90;;
22814;SDS011;11574;51.058;13.712;2023-12-20T09:06:54;3.03;;;0.83;;
22814;SDS011;11574;51.058;13.712;2023-12-20T09:11:58;3.93;;;0.70;;
22814;SDS011;11574;51.058;13.712;2023-12-20T09:17:00;2.10;;;0.80;;
22814;SDS011;11574;51.058;13.712;2023-12-20T09:22:03;3.00;;;0.90;;
22814;SDS011;11574;51.058;13.712;2023-12-20T09:27:07;4.10;;;0.90;;
22814;SDS011;11574;51.058;13.712;2023-12-20T09:32:09;1.60;;;0.60;;
22814;SDS011;11574;51.058;13.712;2023-12-20T09:37:11;4.53;;;0.80;;
22814;SDS011;11574;51.058;13.712;2023-12-20T09:42:16;4.00;;;1.00;;
22814;SDS011;11574;51.058;13.712;2023-12-20T09:47:19;3.03;;;1.00;;
22814;SDS011;11574;51.058;13.712;2023-12-20T09:52:23;3.43;;;0.67;;
22814;SDS011;11574;51.058;13.712;2023-12-20T09:57:27;5.03;;;0.93;;
22814;SDS011;11574;51.058;13.712;2023-12-20T10:02:29;5.60;;;1.33;;
22814;SDS011;11574;51.058;13.712;2023-12-20T10:07:34;2.40;;;1.30;;
22814;SDS011;11574;51.058;13.712;2023-12-20T10:12:38;3.83;;;1.30;;
22814;SDS011;11574;51.058;13.712;2023-12-20T10:17:40;2.23;;;0.87;;
22814;SDS011;11574;51.058;13.712;2023-12-20T10:22:42;3.50;;;1.47;;
22814;SDS011;11574;51.058;13.712;2023-12-20T10:27:46;1.50;;;0.90;;
22814;SDS011;11574;51.058;13.712;2023-12-20T10:32:48;5.07;;;1.17;;
22814;SDS011;11574;51.058;13.712;2023-12-20T10:37:51;4.97;;;1.20;;
22814;SDS011;11574;51.058;13.712;2023-12-20T10:42:56;5.73;;;1.17;;
22814;SDS011;11574;51.058;13.712;2023-12-20T10:48:01;7.47;;;1.40;;
22814;SDS011;11574;51.058;13.712;2023-12-20T10:53:04;4.70;;;1.13;;
22814;SDS011;11574;51.058;13.712;2023-12-20T10:58:08;4.60;;;1.47;;
22814;SDS011;11574;51.058;13.712;2023-12-20T11:03:11;2.03;;;1.00;;
22814;SDS011;11574;51.058;13.712;2023-12-20T11:08:14;4.37;;;1.47;;
22814;SDS011;11574;51.058;13.712;2023-12-20T11:13:26;6.77;;;1.27;;
22814;SDS011;11574;51.058;13.712;2023-12-20T11:18:29;3.10;;;1.00;;
22814;SDS011;11574;51.058;13.712;2023-12-20T11:23:31;3.53;;;1.20;;
22814;SDS011;11574;51.058;13.712;2023-12-20T11:28:35;2.07;;;0.90;;
22814;SDS011;11574;51.058;13.712;2023-12-20T11:33:38;4.37;;;1.37;;
22814;SDS011;11574;51.058;13.712;2023-12-20T11:38:49;2.50;;;1.10;;
22814;SDS011;11574;51.058;13.712;2023-12-20T11:43:57;3.97;;;1.40;;
22814;SDS011;11574;51.058;13.712;2023-12-20T11:49:01;4.27;;;1.17;;
22814;SDS011;11574;51.058;13.712;2023-12-20T11:54:04;5.10;;;1.50;;
22814;SDS011;11574;51.058;13.712;2023-12-20T11:59:09;3.17;;;1.10;;
22814;SDS011;11574;51.058;13.712;2023-12-20T12:04:11;6.10;;;1.20;;
22814;SDS011;11574;51.058;13.712;2023-12-20T12:09:13;4.93;;;0.97;;
22814;SDS011;11574;51.058;13.712;2023-12-20T12:14:17;5.43;;;1.40;;
22814;SDS011;11574;51.058;13.712;2023-12-20T12:19:21;5.60;;;1.73;;
22814;SDS011;11574;51.058;13.712;2023-12-20T12:24:23;6.03;;;1.37;;
22814;SDS011;11574;51.058;13.712;2023-12-20T12:29:27;3.63;;;1.00;;
22814;SDS011;11574;51.058;13.712;2023-12-20T12:34:29;7.27;;;1.40;;
22814;SDS011;11574;51.058;13.712;2023-12-20T12:39:31;3.77;;;1.27;;
22814;SDS011;11574;51.058;13.712;2023-12-20T12:44:35;6.73;;;1.47;;
22814;SDS011;11574;51.058;13.712;2023-12-20T12:49:37;3.30;;;1.50;;
22814;SDS011;11574;51.058;13.712;2023-12-20T12:54:40;3.00;;;1.20;;
22814;SDS011;11574;51.058;13.712;2023-12-20T12:59:46;7.87;;;1.50;;
22814;SDS011;11574;51.058;13.712;2023-12-20T13:04:48;2.37;;;1.00;;
22814;SDS011;11574;51.058;13.712;2023-12-20T13:09:51;5.27;;;1.13;;
22814;SDS011;11574;51.058;13.712;2023-12-20T13:14:55;2.30;;;1.00;;
22814;SDS011;11574;51.058;13.712;2023-12-20T13:19:57;3.53;;;1.30;;
22814;SDS011;11574;51.058;13.712;2023-12-20T13:24:59;5.43;;;1.10;;
22814;SDS011;11574;51.058;13.712;2023-12-20T13:30:04;2.83;;;0.97;;
22814;SDS011;11574;51.058;13.712;2023-12-20T13:35:07;6.90;;;1.17;;
22814;SDS011;11574;51.058;13.712;2023-12-20T13:40:10;5.37;;;1.13;;
22814;SDS011;11574;51.058;13.712;2023-12-20T13:45:14;3.80;;;1.33;;
22814;SDS011;11574;51.058;13.712;2023-12-20T13:50:16;7.70;;;1.57;;
22814;SDS011;11574;51.058;13.712;2023-12-20T13:55:19;4.27;;;0.97;;
22814;SDS011;11574;51.058;13.712;2023-12-20T14:00:26;6.80;;;1.20;;
22814;SDS011;11574;51.058;13.712;2023-12-20T14:05:28;2.30;;;0.90;;
22814;SDS011;11574;51.058;13.712;2023-12-20T14:10:31;5.17;;;1.20;;
22814;SDS011;11574;51.058;13.712;2023-12-20T14:15:35;7.60;;;1.63;;
22814;SDS011;11574;51.058;13.712;2023-12-20T14:20:38;4.10;;;1.17;;
22814;SDS011;11574;51.058;13.712;2023-12-20T14:25:42;3.73;;;1.20;;
22814;SDS011;11574;51.058;13.712;2023-12-20T14:30:45;2.60;;;1.40;;
22814;SDS011;11574;51.058;13.712;2023-12-20T14:35:49;3.23;;;1.27;;
22814;SDS011;11574;51.058;13.712;2023-12-20T14:40:52;3.57;;;0.80;;
22814;SDS011;11574;51.058;13.712;2023-12-20T14:45:56;3.10;;;0.90;;
22814;SDS011;11574;51.058;13.712;2023-12-20T14:50:58;3.10;;;1.20;;
22814;SDS011;11574;51.058;13.712;2023-12-20T14:56:01;5.30;;;1.00;;
22814;SDS011;11574;51.058;13.712;2023-12-20T15:01:04;4.93;;;0.90;;
22814;SDS011;11574;51.058;13.712;2023-12-20T15:06:08;4.30;;;0.90;;
22814;SDS011;11574;51.058;13.712;2023-12-20T15:11:11;3.67;;;0.90;;
22814;SDS011;11574;51.058;13.712;2023-12-20T15:16:16;1.83;;;0.97;;
22814;SDS011;11574;51.058;13.712;2023-12-20T15:21:18;4.87;;;1.00;;
22814;SDS011;11574;51.058;13.712;2023-12-20T15:26:30;2.97;;;1.00;;
22814;SDS011;11574;51.058;13.712;2023-12-20T15:31:33;7.90;;;1.30;;
22814;SDS011;11574;51.058;13.712;2023-12-20T15:36:37;4.80;;;1.10;;
22814;SDS011;11574;51.058;13.712;2023-12-20T15:41:39;2.37;;;0.60;;
22814;SDS011;11574;51.058;13.712;2023-12-20T15:46:43;2.17;;;0.93;;
22814;SDS011;11574;51.058;13.712;2023-12-20T15:51:45;6.00;;;1.13;;
22814;SDS011;11574;51.058;13.712;2023-12-20T15:56:48;3.40;;;0.97;;
22814;SDS011;11574;51.058;13.712;2023-12-20T16:01:52;2.57;;;1.10;;
22814;SDS011;11574;51.058;13.712;2023-12-20T16:06:54;3.20;;;0.90;;
22814;SDS011;11574;51.058;13.712;2023-12-20T16:11:57;4.57;;;1.10;;
22814;SDS011;11574;51.058;13.712;2023-12-20T16:17:00;4.43;;;1.40;;
22814;SDS011;11574;51.058;13.712;2023-12-20T16:22:03;4.60;;;1.30;;
22814;SDS011;11574;51.058;13.712;2023-12-20T16:27:05;4.13;;;0.97;;
22814;SDS011;11574;51.058;13.712;2023-12-20T16:32:09;3.13;;;1.10;;
22814;SDS011;11574;51.058;13.712;2023-12-20T16:37:11;4.80;;;1.03;;
22814;SDS011;11574;51.058;13.712;2023-12-20T16:42:13;3.60;;;1.00;;
22814;SDS011;11574;51.058;13.712;2023-12-20T16:47:17;5.23;;;1.23;;
22814;SDS011;11574;51.058;13.712;2023-12-20T16:52:19;3.13;;;1.20;;
22814;SDS011;11574;51.058;13.712;2023-12-20T16:57:22;3.90;;;1.10;;
22814;SDS011;11574;51.058;13.712;2023-12-20T17:02:26;3.57;;;1.10;;
22814;SDS011;11574;51.058;13.712;2023-12-20T17:07:28;2.97;;;1.07;;
22814;SDS011;11574;51.058;13.712;2023-12-20T17:12:30;5.97;;;1.93;;
22814;SDS011;11574;51.058;13.712;2023-12-20T17:17:34;2.50;;;1.07;;
22814;SDS011;11574;51.058;13.712;2023-12-20T17:22:37;2.50;;;1.10;;
22814;SDS011;11574;51.058;13.712;2023-12-20T17:27:39;1.63;;;0.87;;
22814;SDS011;11574;51.058;13.712;2023-12-20T17:32:44;8.13;;;1.60;;
22814;SDS011;11574;51.058;13.712;2023-12-20T17:37:48;3.20;;;1.13;;
22814;SDS011;11574;51.058;13.712;2023-12-20T17:42:52;7.27;;;1.33;;
22814;SDS011;11574;51.058;13.712;2023-12-20T17:47:57;5.97;;;2.00;;
22814;SDS011;11574;51.058;13.712;2023-12-20T17:52:59;5.60;;;1.60;;
22814;SDS011;11574;51.058;13.712;2023-12-20T17:58:01;2.73;;;1.37;;
22814;SDS011;11574;51.058;13.712;2023-12-20T18:03:05;5.73;;;1.53;;
22814;SDS011;11574;51.058;13.712;2023-12-20T18:08:08;7.80;;;1.70;;
22814;SDS011;11574;51.058;13.712;2023-12-20T18:13:10;5.43;;;1.70;;
22814;SDS011;11574;51.058;13.712;2023-12-20T18:18:14;7.97;;;1.97;;
22814;SDS011;11574;51.058;13.712;2023-12-20T18:23:16;9.97;;;2.20;;
22814;SDS011;11574;51.058;13.712;2023-12-20T18:28:19;7.27;;;2.10;;
22814;SDS011;11574;51.058;13.712;2023-12-20T18:33:23;5.80;;;2.00;;
22814;SDS011;11574;51.058;13.712;2023-12-20T18:38:25;6.23;;;2.30;;
22814;SDS011;11574;51.058;13.712;2023-12-20T18:43:30;8.43;;;2.80;;
22814;SDS011;11574;51.058;13.712;2023-12-20T18:48:35;6.13;;;2.30;;
22814;SDS011;11574;51.058;13.712;2023-12-20T18:53:39;5.70;;;1.77;;
22814;SDS011;11574;51.058;13.712;2023-12-20T18:58:41;7.90;;;2.53;;
22814;SDS011;11574;51.058;13.712;2023-12-20T19:03:47;6.20;;;2.07;;
22814;SDS011;11574;51.058;13.712;2023-12-20T19:08:49;6.20;;;2.63;;
22814;SDS011;11574;51.058;13.712;2023-12-20T19:13:53;5.57;;;2.57;;
22814;SDS011;11574;51.058;13.712;2023-12-20T19:18:56;6.73;;;2.73;;
22814;SDS011;11574;51.058;13.712;2023-12-20T19:23:59;6.17;;;1.80;;
22814;SDS011;11574;51.058;13.712;2023-12-20T19:29:01;3.93;;;2.10;;
22814;SDS011;11574;51.058;13.712;2023-12-20T19:34:05;4.83;;;2.33;;
22814;SDS011;11574;51.058;13.712;2023-12-20T19:39:07;4.93;;;1.77;;
22814;SDS011;11574;51.058;13.712;2023-12-20T19:44:09;4.60;;;1.70;;
22814;SDS011;11574;51.058;13.712;2023-12-20T19:49:15;4.73;;;2.40;;
22814;SDS011;11574;51.058;13.712;2023-12-20T19:54:18;5.60;;;2.20;;
22814;SDS011;11574;51.058;13.712;2023-12-20T19:59:20;6.63;;;2.00;;
22814;SDS011;11574;51.058;13.712;2023-12-20T20:04:24;4.93;;;2.27;;
22814;SDS011;11574;51.058;13.712;2023-12-20T20:09:27;12.50;;;3.13;;
22814;SDS011;11574;51.058;13.712;2023-12-20T20:14:29;9.77;;;3.03;;
22814;SDS011;11574;51.058;13.712;2023-12-20T20:19:32;5.13;;;1.80;;
22814;SDS011;11574;51.058;13.712;2023-12-20T20:24:35;5.07;;;1.83;;
22814;SDS011;11574;51.058;13.712;2023-12-20T20:29:37;5.33;;;2.47;;
22814;SDS011;11574;51.058;13.712;2023-12-20T20:34:41;3.87;;;1.60;;
22814;SDS011;11574;51.058;13.712;2023-12-20T20:39:43;2.57;;;1.23;;
22814;SDS011;11574;51.058;13.712;2023-12-20T20:44:45;4.53;;;1.97;;
22814;SDS011;11574;51.058;13.712;2023-12-20T20:49:49;2.43;;;0.77;;
22814;SDS011;11574;51.058;13.712;2023-12-20T20:54:52;1.40;;;0.70;;
22814;SDS011;11574;51.058;13.712;2023-12-20T20:59:54;1.43;;;0.93;;
22814;SDS011;11574;51.058;13.712;2023-12-20T21:04:58;5.80;;;2.17;;
22814;SDS011;11574;51.058;13.712;2023-12-20T21:10:00;1.90;;;0.90;;
22814;SDS011;11574;51.058;13.712;2023-12-20T21:15:03;1.23;;;0.80;;
22814;SDS011;11574;51.058;13.712;2023-12-20T21:20:07;1.47;;;0.80;;
22814;SDS011;11574;51.058;13.712;2023-12-20T21:25:10;1.93;;;1.20;;
22814;SDS011;11574;51.058;13.712;2023-12-20T21:30:12;4.37;;;1.80;;
22814;SDS011;11574;51.058;13.712;2023-12-20T21:35:16;1.50;;;0.80;;
22814;SDS011;11574;51.058;13.712;2023-12-20T21:40:18;1.23;;;0.80;;
22814;SDS011;11574;51.058;13.712;2023-12-20T21:45:21;1.67;;;0.80;;
22814;SDS011;11574;51.058;13.712;2023-12-20T21:50:24;3.27;;;1.30;;
22814;SDS011;11574;51.058;13.712;2023-12-20T21:55:27;1.47;;;0.80;;
22814;SDS011;11574;51.058;13.712;2023-12-20T22:00:29;2.60;;;1.40;;
22814;SDS011;11574;51.058;13.712;2023-12-20T22:05:34;2.03;;;1.10;;
22814;SDS011;11574;51.058;13.712;2023-12-20T22:10:37;3.20;;;1.70;;
22814;SDS011;11574;51.058;13.712;2023-12-20T22:15:40;1.00;;;0.80;;
22814;SDS011;11574;51.058;13.712;2023-12-20T22:20:44;2.33;;;1.00;;
22814;SDS011;11574;51.058;13.712;2023-12-20T22:25:47;2.07;;;1.20;;
22814;SDS011;11574;51.058;13.712;2023-12-20T22:30:49;0.87;;;0.50;;
22814;SDS011;11574;51.058;13.712;2023-12-20T22:35:53;2.00;;;0.70;;
22814;SDS011;11574;51.058;13.712;2023-12-20T22:40:55;8.27;;;3.10;;
22814;SDS011;11574;51.058;13.712;2023-12-20T22:45:57;1.00;;;0.60;;
22814;SDS011;11574;51.058;13.712;2023-12-20T22:51:01;0.80;;;0.50;;
22814;SDS011;11574;51.058;13.712;2023-12-20T22:56:04;2.70;;;0.90;;
22814;SDS011;11574;51.058;13.712;2023-12-20T23:01:06;2.97;;;0.50;;
22814;SDS011;11574;51.058;13.712;2023-12-20T23:06:10;2.23;;;0.83;;
22814;SDS011;11574;51.058;13.712;2023-12-20T23:11:13;3.07;;;1.47;;
22814;SDS011;11574;51.058;13.712;2023-12-20T23:16:15;2.33;;;1.00;;
22814;SDS011;11574;51.058;13.712;2023-12-20T23:21:19;3.70;;;1.10;;
22814;SDS011;11574;51.058;13.712;2023-12-20T23:26:21;1.67;;;0.80;;
22814;SDS011;11574;51.058;13.712;2023-12-20T23:31:23;1.73;;;0.70;;
22814;SDS011;11574;51.058;13.712;2023-12-20T23:36:27;1.53;;;0.80;;
22814;SDS011;11574;51.058;13.712;2023-12-20T23:41:30;2.10;;;1.10;;
22814;SDS011;11574;51.058;13.712;2023-12-20T23:46:32;0.87;;;0.50;;
22814;SDS011;11574;51.058;13.712;2023-12-20T23:51:36;1.37;;;0.50;;
22814;SDS011;11574;51.058;13.712;2023-12-20T23:56:38;1.33;;;0.60;;
